Time;durP1;ratioP1;P1;durP2;ratioP2;P2;SDS_P1;SDS_P2;PMS_P1;PMS_P2;Temp;Humidity;BMP_temperature;BMP_pressure;BME280_temperature;BME280_humidity;BME280_pressure;Samples;Min_cycle;Max_cycle;Signal;HPM_P1;HPM_P2
2021/12/09 00:01:43;;;;;;;24.80;23.13;;;;;;;;;;4994590;28;20200;-82
2021/12/09 00:04:13;;;;;;;27.05;25.05;;;;;;;;;;4994060;28;20678;-81
2021/12/09 00:06:42;;;;;;;27.73;25.50;;;;;;;;;;4996160;28;20187;-83
2021/12/09 00:09:11;;;;;;;26.15;24.15;;;;;;;;;;4995803;28;20200;-83
2021/12/09 00:11:43;;;;;;;25.67;23.98;;;;;;;;;;4995594;28;20197;-84
2021/12/09 00:14:14;;;;;;;27.05;25.13;;;;;;;;;;4995561;28;20263;-80
2021/12/09 00:16:41;;;;;;;26.35;24.45;;;;;;;;;;4995231;28;20204;-81
2021/12/09 00:19:08;;;;;;;26.02;24.20;;;;;;;;;;4995507;28;20193;-81
2021/12/09 00:21:36;;;;;;;26.15;23.90;;;;;;;;;;4994808;28;20642;-82
2021/12/09 00:24:03;;;;;;;26.35;24.25;;;;;;;;;;4994428;28;20776;-82
2021/12/09 00:26:31;;;;;;;26.58;24.63;;;;;;;;;;4994309;28;20215;-82
2021/12/09 00:28:58;;;;;;;26.90;24.90;;;;;;;;;;4995227;28;20324;-82
2021/12/09 00:31:27;;;;;;;25.88;23.92;;;;;;;;;;4994528;28;20196;-82
2021/12/09 00:33:56;;;;;;;24.50;22.85;;;;;;;;;;5000478;28;20199;-82
2021/12/09 00:36:35;;;;;;;26.52;24.60;;;;;;;;;;5014227;28;20264;-82
2021/12/09 00:39:02;;;;;;;26.67;24.77;;;;;;;;;;5012971;28;20231;-81
2021/12/09 00:41:30;;;;;;;26.55;24.58;;;;;;;;;;5013091;28;20191;-82
2021/12/09 00:43:57;;;;;;;26.83;24.52;;;;;;;;;;5012969;28;20215;-82
2021/12/09 00:46:24;;;;;;;26.80;24.60;;;;;;;;;;5012051;28;20253;-82
2021/12/09 00:48:53;;;;;;;27.52;25.52;;;;;;;;;;5011296;28;20613;-82
2021/12/09 00:51:21;;;;;;;26.98;24.67;;;;;;;;;;5013371;28;20191;-82
2021/12/09 00:53:49;;;;;;;25.27;23.48;;;;;;;;;;5012945;28;20195;-82
2021/12/09 00:56:16;;;;;;;26.80;24.70;;;;;;;;;;5012884;28;20547;-82
2021/12/09 00:58:44;;;;;;;26.60;24.52;;;;;;;;;;5012691;28;20199;-83
2021/12/09 01:01:12;;;;;;;26.45;24.55;;;;;;;;;;5012557;28;20198;-82
2021/12/09 01:03:40;;;;;;;26.67;24.70;;;;;;;;;;5012637;28;20249;-82
2021/12/09 01:06:09;;;;;;;26.75;24.70;;;;;;;;;;5017735;28;20429;-82
2021/12/09 01:08:37;;;;;;;26.20;24.20;;;;;;;;;;5017093;28;20192;-82
2021/12/09 01:11:06;;;;;;;25.52;23.60;;;;;;;;;;5016962;28;20572;-83
2021/12/09 01:13:33;;;;;;;26.00;24.10;;;;;;;;;;5016623;28;20265;-82
2021/12/09 01:16:01;;;;;;;26.00;24.00;;;;;;;;;;5016582;28;20287;-82
2021/12/09 01:18:29;;;;;;;26.55;24.55;;;;;;;;;;5023269;28;20192;-82
2021/12/09 01:20:57;;;;;;;26.23;24.10;;;;;;;;;;5018313;28;20624;-82
2021/12/09 01:23:26;;;;;;;26.60;24.60;;;;;;;;;;5022211;28;20247;-82
2021/12/09 01:25:59;;;;;;;26.35;24.50;;;;;;;;;;5023520;28;20239;-82
2021/12/09 01:28:29;;;;;;;27.50;25.42;;;;;;;;;;5013104;28;20236;-82
2021/12/09 01:31:02;;;;;;;26.30;24.50;;;;;;;;;;5017712;28;20200;-81
2021/12/09 01:33:29;;;;;;;25.55;23.73;;;;;;;;;;5017312;28;20414;-82
2021/12/09 01:35:57;;;;;;;27.67;25.42;;;;;;;;;;5019520;28;20211;-82
2021/12/09 01:38:31;;;;;;;25.77;23.88;;;;;;;;;;5026895;28;20270;-82
2021/12/09 01:41:01;;;;;;;25.90;24.05;;;;;;;;;;5024617;28;20197;-82
2021/12/09 01:43:32;;;;;;;25.90;24.20;;;;;;;;;;5020394;28;20191;-82
2021/12/09 01:46:06;;;;;;;26.42;24.40;;;;;;;;;;5023451;28;20243;-82
2021/12/09 01:48:35;;;;;;;27.05;24.83;;;;;;;;;;5025448;28;20557;-79
2021/12/09 01:51:03;;;;;;;25.90;23.83;;;;;;;;;;5020795;28;20213;-82
2021/12/09 01:53:35;;;;;;;25.85;24.15;;;;;;;;;;5021487;28;20200;-81
2021/12/09 01:56:04;;;;;;;25.80;24.10;;;;;;;;;;5021075;28;20284;-82
2021/12/09 01:58:31;;;;;;;26.27;24.25;;;;;;;;;;5017394;28;20250;-82
2021/12/09 02:00:59;;;;;;;27.17;25.02;;;;;;;;;;5018057;28;20197;-83
2021/12/09 02:03:26;;;;;;;27.38;25.45;;;;;;;;;;5016823;28;20203;-81
2021/12/09 02:05:54;;;;;;;25.77;23.85;;;;;;;;;;5016904;28;20223;-83
2021/12/09 02:08:22;;;;;;;26.67;24.77;;;;;;;;;;5020081;28;20582;-82
2021/12/09 02:10:51;;;;;;;26.27;24.33;;;;;;;;;;5021193;28;20187;-82
2021/12/09 02:13:19;;;;;;;26.73;24.77;;;;;;;;;;5016604;28;20254;-82
2021/12/09 02:15:47;;;;;;;25.90;24.20;;;;;;;;;;5017398;28;20313;-82
2021/12/09 02:18:15;;;;;;;25.97;24.27;;;;;;;;;;5017034;28;20669;-82
2021/12/09 02:20:45;;;;;;;27.88;25.85;;;;;;;;;;5016929;28;21160;-82
2021/12/09 02:23:16;;;;;;;26.47;24.70;;;;;;;;;;5017080;28;20232;-82
2021/12/09 02:25:45;;;;;;;29.27;26.92;;;;;;;;;;5016369;28;20493;-82
2021/12/09 02:28:13;;;;;;;26.50;24.45;;;;;;;;;;5016293;28;20299;-82
2021/12/09 02:30:40;;;;;;;27.02;24.92;;;;;;;;;;5016850;28;20314;-83
2021/12/09 02:33:07;;;;;;;27.25;25.02;;;;;;;;;;5015644;28;20591;-83
2021/12/09 02:35:36;;;;;;;26.55;24.45;;;;;;;;;;5001721;28;20192;-83
2021/12/09 02:38:07;;;;;;;25.77;23.88;;;;;;;;;;4997180;28;20243;-82
2021/12/09 02:40:34;;;;;;;26.42;24.13;;;;;;;;;;4996590;28;20196;-82
2021/12/09 02:43:01;;;;;;;25.75;23.95;;;;;;;;;;4996531;28;20197;-81
2021/12/09 02:45:29;;;;;;;26.02;24.33;;;;;;;;;;4997297;28;20220;-82
2021/12/09 02:47:56;;;;;;;26.40;24.25;;;;;;;;;;4999364;28;20227;-83
2021/12/09 02:50:23;;;;;;;25.02;23.42;;;;;;;;;;4995595;28;20195;-82
2021/12/09 02:52:54;;;;;;;26.67;24.38;;;;;;;;;;4995944;28;20231;-82
2021/12/09 02:55:22;;;;;;;26.83;25.02;;;;;;;;;;4995422;28;20646;-82
2021/12/09 02:57:52;;;;;;;26.67;24.67;;;;;;;;;;4995982;28;20192;-83
2021/12/09 03:00:21;;;;;;;26.17;24.17;;;;;;;;;;4996640;28;20193;-82
2021/12/09 03:02:48;;;;;;;26.13;24.23;;;;;;;;;;4995363;28;20284;-82
2021/12/09 03:05:16;;;;;;;26.17;24.08;;;;;;;;;;4995226;28;20223;-82
2021/12/09 03:07:44;;;;;;;25.77;24.08;;;;;;;;;;4998392;28;20252;-81
2021/12/09 03:10:18;;;;;;;26.55;24.55;;;;;;;;;;4994851;28;20775;-84
2021/12/09 03:12:48;;;;;;;25.20;23.33;;;;;;;;;;4995387;28;20219;-82
2021/12/09 03:15:16;;;;;;;26.52;24.35;;;;;;;;;;4994885;28;20575;-83
2021/12/09 03:17:43;;;;;;;25.10;23.40;;;;;;;;;;4995387;28;20219;-83
2021/12/09 03:20:12;;;;;;;26.55;24.40;;;;;;;;;;4993954;28;20215;-82
2021/12/09 03:22:40;;;;;;;26.35;24.25;;;;;;;;;;4995099;28;20196;-83
2021/12/09 03:25:09;;;;;;;26.70;24.90;;;;;;;;;;4994973;28;20227;-83
2021/12/09 03:27:36;;;;;;;27.03;24.90;;;;;;;;;;4995266;28;20630;-83
2021/12/09 03:30:07;;;;;;;26.23;24.30;;;;;;;;;;4994713;28;20415;-83
2021/12/09 03:32:35;;;;;;;26.45;24.42;;;;;;;;;;4994987;28;20444;-82
2021/12/09 03:35:03;;;;;;;26.98;24.50;;;;;;;;;;5006146;28;20192;-81
2021/12/09 03:37:30;;;;;;;25.70;24.10;;;;;;;;;;5014525;28;20196;-83
2021/12/09 03:39:58;;;;;;;25.50;23.80;;;;;;;;;;5014360;28;20227;-82
2021/12/09 03:42:26;;;;;;;26.00;23.80;;;;;;;;;;5014286;28;20197;-82
2021/12/09 03:44:55;;;;;;;25.83;23.77;;;;;;;;;;5013674;28;20212;-83
2021/12/09 03:47:25;;;;;;;25.30;23.60;;;;;;;;;;5015036;28;20696;-83
2021/12/09 03:49:52;;;;;;;25.52;23.73;;;;;;;;;;5014062;28;20250;-82
2021/12/09 03:52:20;;;;;;;25.60;23.55;;;;;;;;;;5014891;28;20195;-83
2021/12/09 03:54:48;;;;;;;26.52;24.48;;;;;;;;;;5014255;28;20205;-82
2021/12/09 03:57:16;;;;;;;25.60;24.00;;;;;;;;;;5012833;28;20206;-83
2021/12/09 03:59:44;;;;;;;25.75;23.85;;;;;;;;;;5013899;28;20649;-82
2021/12/09 04:02:12;;;;;;;26.67;24.48;;;;;;;;;;5014232;28;20241;-82
2021/12/09 04:04:41;;;;;;;26.00;24.10;;;;;;;;;;5014085;28;20196;-82
2021/12/09 04:07:08;;;;;;;27.52;25.50;;;;;;;;;;5013930;28;20199;-82
2021/12/09 04:09:36;;;;;;;26.63;24.75;;;;;;;;;;5013865;28;20199;-82
2021/12/09 04:12:03;;;;;;;25.52;23.60;;;;;;;;;;5013765;28;20633;-82
2021/12/09 04:14:32;;;;;;;25.10;23.35;;;;;;;;;;5013726;28;20526;-82
2021/12/09 04:16:59;;;;;;;26.50;24.50;;;;;;;;;;5013415;28;20239;-82
2021/12/09 04:19:27;;;;;;;27.20;24.85;;;;;;;;;;5013361;28;20199;-82
2021/12/09 04:21:56;;;;;;;27.10;25.05;;;;;;;;;;5013733;28;20249;-89
2021/12/09 04:24:23;;;;;;;27.17;25.33;;;;;;;;;;5013073;28;20254;-81
2021/12/09 04:26:52;;;;;;;26.92;24.80;;;;;;;;;;5013502;28;20302;-80
2021/12/09 04:29:19;;;;;;;27.38;25.05;;;;;;;;;;5011803;28;20727;-82
2021/12/09 04:31:48;;;;;;;28.30;26.10;;;;;;;;;;5013209;28;20193;-82
2021/12/09 04:34:16;;;;;;;25.95;24.15;;;;;;;;;;5008194;28;20881;-81
2021/12/09 04:36:43;;;;;;;26.08;24.27;;;;;;;;;;4993647;28;20195;-81
2021/12/09 04:39:12;;;;;;;28.75;26.17;;;;;;;;;;4997952;28;20229;-80
2021/12/09 04:41:40;;;;;;;26.08;24.27;;;;;;;;;;4994181;28;20200;-82
2021/12/09 04:44:07;;;;;;;26.35;24.05;;;;;;;;;;4993226;28;20364;-81
2021/12/09 04:46:35;;;;;;;27.52;25.50;;;;;;;;;;4993605;28;20225;-82
2021/12/09 04:49:03;;;;;;;27.70;25.45;;;;;;;;;;4993283;28;20220;-83
2021/12/09 04:51:30;;;;;;;26.83;24.75;;;;;;;;;;4993354;28;20250;-82
2021/12/09 04:53:59;;;;;;;27.73;25.55;;;;;;;;;;4993365;28;20199;-82
2021/12/09 04:56:28;;;;;;;27.20;25.20;;;;;;;;;;4995506;28;20199;-81
2021/12/09 04:58:55;;;;;;;26.63;24.50;;;;;;;;;;4993421;28;20249;-82
2021/12/09 05:01:23;;;;;;;26.88;24.70;;;;;;;;;;4995336;28;20192;-82
2021/12/09 05:03:51;;;;;;;27.40;25.25;;;;;;;;;;4993081;28;20984;-82
2021/12/09 05:06:19;;;;;;;27.30;25.45;;;;;;;;;;4992888;28;20220;-82
2021/12/09 05:08:48;;;;;;;29.08;26.70;;;;;;;;;;4993137;28;20193;-82
2021/12/09 05:11:29;;;;;;;26.77;24.98;;;;;;;;;;4993065;28;20298;-81
2021/12/09 05:13:58;;;;;;;27.40;25.60;;;;;;;;;;4993180;28;20207;-81
2021/12/09 05:16:26;;;;;;;26.70;24.75;;;;;;;;;;4993777;28;20203;-83
2021/12/09 05:18:58;;;;;;;26.67;24.85;;;;;;;;;;4993102;28;20642;-82
2021/12/09 05:21:27;;;;;;;29.85;27.35;;;;;;;;;;4993115;28;20197;-82
2021/12/09 05:23:54;;;;;;;27.55;25.45;;;;;;;;;;4993123;28;20330;-82
2021/12/09 05:26:25;;;;;;;27.33;25.33;;;;;;;;;;4993223;28;20565;-82
2021/12/09 05:28:56;;;;;;;30.58;27.85;;;;;;;;;;4993121;28;20546;-82
2021/12/09 05:34:10;;;;;;;27.25;25.38;;;;;;;;;;4996465;28;20205;-82
2021/12/09 05:36:38;;;;;;;27.67;25.50;;;;;;;;;;5012965;28;20222;-82
2021/12/09 05:39:06;;;;;;;28.35;26.17;;;;;;;;;;5012321;28;20234;-82
2021/12/09 05:41:33;;;;;;;26.05;24.35;;;;;;;;;;5012667;28;20196;-82
2021/12/09 05:44:01;;;;;;;27.98;25.70;;;;;;;;;;5012459;28;20199;-81
2021/12/09 05:46:30;;;;;;;28.52;26.33;;;;;;;;;;5013402;28;20223;-81
2021/12/09 05:48:58;;;;;;;28.02;25.77;;;;;;;;;;5012698;28;20187;-82
2021/12/09 05:51:25;;;;;;;27.83;25.83;;;;;;;;;;5012592;28;20249;-82
2021/12/09 05:53:55;;;;;;;29.25;26.85;;;;;;;;;;5013311;28;20250;-81
2021/12/09 05:56:22;;;;;;;28.55;26.10;;;;;;;;;;5013160;28;20190;-82
2021/12/09 05:58:50;;;;;;;26.67;24.83;;;;;;;;;;5014311;28;20206;-82
2021/12/09 06:01:17;;;;;;;27.27;25.25;;;;;;;;;;5016562;28;20206;-81
2021/12/09 06:06:42;;;;;;;26.52;24.48;;;;;;;;;;5012924;28;20264;-82
2021/12/09 06:09:11;;;;;;;27.00;24.80;;;;;;;;;;5012882;28;20214;-81
2021/12/09 06:11:38;;;;;;;27.20;25.17;;;;;;;;;;5014947;28;20194;-81
2021/12/09 06:14:08;;;;;;;28.38;26.08;;;;;;;;;;5013209;28;20596;-81
2021/12/09 06:16:36;;;;;;;28.73;26.48;;;;;;;;;;5015151;28;20187;-82
2021/12/09 06:19:04;;;;;;;28.95;26.45;;;;;;;;;;5015111;28;20186;-81
2021/12/09 06:21:32;;;;;;;28.23;25.83;;;;;;;;;;5015372;28;20206;-82
2021/12/09 06:24:01;;;;;;;28.08;26.05;;;;;;;;;;5017429;28;20227;-81
2021/12/09 06:26:29;;;;;;;29.33;26.70;;;;;;;;;;5013742;28;20223;-82
2021/12/09 06:28:56;;;;;;;29.23;26.75;;;;;;;;;;5012726;28;20198;-81
2021/12/09 06:31:24;;;;;;;28.40;25.90;;;;;;;;;;5012295;28;20619;-82
2021/12/09 06:33:51;;;;;;;29.58;27.13;;;;;;;;;;5011938;28;20198;-81
2021/12/09 06:36:19;;;;;;;30.80;27.98;;;;;;;;;;4991841;28;20198;-82
2021/12/09 06:38:46;;;;;;;29.98;27.63;;;;;;;;;;4992583;28;20234;-82
2021/12/09 06:41:15;;;;;;;28.45;26.23;;;;;;;;;;4992398;28;20191;-81
2021/12/09 06:43:43;;;;;;;30.20;27.70;;;;;;;;;;4993311;28;20188;-82
2021/12/09 06:46:11;;;;;;;29.10;26.48;;;;;;;;;;4996216;28;20218;-82
2021/12/09 06:48:39;;;;;;;27.77;25.23;;;;;;;;;;4995392;28;20258;-82
2021/12/09 06:51:07;;;;;;;29.45;26.80;;;;;;;;;;4995528;28;20207;-82
2021/12/09 06:53:34;;;;;;;28.70;26.50;;;;;;;;;;4995650;28;20196;-81
2021/12/09 06:56:02;;;;;;;30.52;27.83;;;;;;;;;;4995395;28;20208;-82
2021/12/09 06:58:31;;;;;;;28.55;26.25;;;;;;;;;;4995582;28;20188;-82
2021/12/09 07:01:00;;;;;;;30.70;28.20;;;;;;;;;;4994958;28;20832;-81
2021/12/09 07:03:28;;;;;;;29.50;27.05;;;;;;;;;;4995603;28;20187;-82
2021/12/09 07:05:57;;;;;;;30.95;28.15;;;;;;;;;;4995163;28;20218;-82
2021/12/09 07:08:24;;;;;;;30.98;28.58;;;;;;;;;;4995290;28;20290;-82
2021/12/09 07:10:52;;;;;;;30.15;27.85;;;;;;;;;;4995107;28;20214;-81
2021/12/09 07:13:19;;;;;;;33.70;28.20;;;;;;;;;;4995025;28;20226;-82
2021/12/09 07:15:49;;;;;;;30.40;27.50;;;;;;;;;;4994940;28;20198;-83
2021/12/09 07:18:20;;;;;;;31.02;28.63;;;;;;;;;;4994889;28;20218;-81
2021/12/09 07:20:48;;;;;;;33.40;28.75;;;;;;;;;;4994944;28;20217;-82
2021/12/09 07:23:15;;;;;;;30.60;28.10;;;;;;;;;;4994524;28;20230;-82
2021/12/09 07:25:42;;;;;;;31.05;28.25;;;;;;;;;;4994483;28;20199;-82
2021/12/09 07:28:09;;;;;;;29.83;27.35;;;;;;;;;;4994664;28;20196;-82
2021/12/09 07:30:37;;;;;;;31.83;28.95;;;;;;;;;;4994271;28;20596;-81
2021/12/09 07:33:05;;;;;;;32.40;29.50;;;;;;;;;;4994760;28;20195;-83
2021/12/09 07:35:33;;;;;;;31.40;28.48;;;;;;;;;;5008264;28;20191;-82
2021/12/09 07:38:01;;;;;;;33.25;30.08;;;;;;;;;;5014144;28;20229;-83
2021/12/09 07:40:28;;;;;;;31.48;28.80;;;;;;;;;;5013915;28;20198;-82
2021/12/09 07:42:55;;;;;;;29.15;26.75;;;;;;;;;;5013856;28;20596;-82
2021/12/09 07:45:23;;;;;;;31.48;28.88;;;;;;;;;;5013694;28;20185;-83
2021/12/09 07:47:50;;;;;;;29.42;26.95;;;;;;;;;;5013993;28;20222;-82
2021/12/09 07:50:21;;;;;;;31.25;28.35;;;;;;;;;;5013805;28;20202;-82
2021/12/09 07:52:50;;;;;;;30.17;27.67;;;;;;;;;;5013555;28;20194;-81
2021/12/09 07:55:18;;;;;;;31.35;28.75;;;;;;;;;;5013166;28;20698;-82
2021/12/09 07:57:46;;;;;;;31.13;28.35;;;;;;;;;;5013526;28;20190;-81
2021/12/09 08:00:15;;;;;;;30.30;27.85;;;;;;;;;;5013634;28;20188;-81
2021/12/09 08:02:43;;;;;;;30.45;28.15;;;;;;;;;;5013822;28;20194;-81
2021/12/09 08:05:11;;;;;;;30.05;27.58;;;;;;;;;;5012097;28;20202;-81
2021/12/09 08:07:41;;;;;;;31.80;28.90;;;;;;;;;;5011289;28;20723;-82
2021/12/09 08:10:09;;;;;;;31.05;28.33;;;;;;;;;;5013350;28;20682;-81
2021/12/09 08:12:37;;;;;;;31.13;28.33;;;;;;;;;;5012031;28;20257;-82
2021/12/09 08:15:04;;;;;;;31.23;28.40;;;;;;;;;;5013163;28;20206;-81
2021/12/09 08:17:56;;;;;;;32.85;30.02;;;;;;;;;;5013430;28;20188;-82
2021/12/09 08:20:24;;;;;;;32.50;29.75;;;;;;;;;;5013138;28;20621;-81
2021/12/09 08:22:53;;;;;;;31.38;28.88;;;;;;;;;;5013212;28;20312;-82
2021/12/09 08:25:21;;;;;;;32.55;29.77;;;;;;;;;;5011668;28;20203;-81
2021/12/09 08:27:48;;;;;;;32.25;29.10;;;;;;;;;;5012975;28;20232;-81
2021/12/09 08:30:17;;;;;;;33.97;30.92;;;;;;;;;;5013786;28;20205;-85
2021/12/09 08:32:45;;;;;;;34.55;31.20;;;;;;;;;;5013871;28;20197;-85
2021/12/09 08:35:15;;;;;;;32.33;29.42;;;;;;;;;;5014223;28;20191;-86
2021/12/09 08:37:42;;;;;;;32.03;28.85;;;;;;;;;;5014133;28;20604;-86
2021/12/09 08:40:12;;;;;;;30.20;27.92;;;;;;;;;;5014390;28;20194;-86
2021/12/09 08:42:39;;;;;;;32.25;29.50;;;;;;;;;;5013918;28;20195;-86
2021/12/09 08:45:09;;;;;;;31.20;28.55;;;;;;;;;;5013787;28;20237;-86
2021/12/09 08:47:37;;;;;;;32.15;29.50;;;;;;;;;;5013843;28;20222;-86
2021/12/09 08:50:05;;;;;;;32.30;29.15;;;;;;;;;;5014158;28;20641;-86
2021/12/09 08:52:32;;;;;;;30.50;27.77;;;;;;;;;;5012691;28;20225;-86
2021/12/09 08:55:00;;;;;;;32.58;29.77;;;;;;;;;;5013783;28;20199;-86
2021/12/09 08:57:31;;;;;;;32.10;29.50;;;;;;;;;;5013937;28;20200;-86
2021/12/09 08:59:58;;;;;;;30.58;28.08;;;;;;;;;;5013890;28;20252;-86
2021/12/09 09:02:26;;;;;;;29.42;26.83;;;;;;;;;;5013514;28;20249;-87
2021/12/09 09:04:53;;;;;;;31.30;28.65;;;;;;;;;;5013584;28;20195;-86
2021/12/09 09:07:21;;;;;;;29.55;27.15;;;;;;;;;;5012992;28;20305;-86
2021/12/09 09:09:48;;;;;;;32.25;29.58;;;;;;;;;;5013787;28;20194;-86
2021/12/09 09:12:17;;;;;;;32.25;29.23;;;;;;;;;;5013561;28;20600;-86
2021/12/09 09:14:45;;;;;;;31.02;28.05;;;;;;;;;;5013301;28;20727;-85
2021/12/09 09:17:13;;;;;;;31.35;28.63;;;;;;;;;;5013406;28;20192;-86
2021/12/09 09:19:40;;;;;;;32.17;28.90;;;;;;;;;;5013520;28;20216;-86
2021/12/09 09:22:08;;;;;;;31.85;28.60;;;;;;;;;;5012421;28;20210;-85
2021/12/09 09:24:36;;;;;;;30.33;27.98;;;;;;;;;;5012934;28;20234;-85
2021/12/09 09:27:03;;;;;;;30.27;27.75;;;;;;;;;;5012763;28;20227;-82
2021/12/09 09:29:32;;;;;;;31.13;28.23;;;;;;;;;;5012549;28;20198;-84
2021/12/09 09:32:01;;;;;;;30.98;28.50;;;;;;;;;;5012611;28;20242;-85
2021/12/09 09:34:28;;;;;;;32.03;29.30;;;;;;;;;;5014559;28;20201;-94
2021/12/09 09:36:56;;;;;;;29.67;27.52;;;;;;;;;;5013087;28;20187;-86
2021/12/09 09:39:28;;;;;;;32.65;29.52;;;;;;;;;;5013087;28;20572;-85
2021/12/09 09:42:00;;;;;;;30.50;27.67;;;;;;;;;;5013262;28;20203;-85
2021/12/09 09:44:34;;;;;;;30.98;28.38;;;;;;;;;;5013147;28;20203;-85
2021/12/09 09:47:05;;;;;;;31.48;29.13;;;;;;;;;;5012990;28;20234;-86
2021/12/09 09:49:34;;;;;;;32.97;30.33;;;;;;;;;;5013330;28;20289;-85
2021/12/09 09:52:02;;;;;;;29.92;27.73;;;;;;;;;;5013215;28;20233;-86
2021/12/09 09:54:29;;;;;;;30.23;27.92;;;;;;;;;;5013204;28;20199;-85
2021/12/09 09:56:56;;;;;;;33.47;30.20;;;;;;;;;;5013316;28;20206;-86
2021/12/09 09:59:24;;;;;;;31.90;29.20;;;;;;;;;;5012494;28;20261;-85
2021/12/09 10:01:55;;;;;;;31.27;28.42;;;;;;;;;;5012876;28;20205;-86
2021/12/09 10:04:33;;;;;;;29.23;26.75;;;;;;;;;;5011577;28;20214;-84
2021/12/09 10:07:00;;;;;;;29.33;26.88;;;;;;;;;;5012996;28;20598;-86
2021/12/09 10:09:28;;;;;;;29.95;26.90;;;;;;;;;;5013096;28;20192;-86
2021/12/09 10:11:56;;;;;;;27.95;25.65;;;;;;;;;;5012993;28;20246;-85
2021/12/09 10:14:26;;;;;;;29.48;26.80;;;;;;;;;;5012637;28;20202;-85
2021/12/09 10:17:04;;;;;;;28.33;25.95;;;;;;;;;;5012751;28;20257;-86
2021/12/09 10:19:35;;;;;;;29.70;27.05;;;;;;;;;;5016851;28;20609;-85
2021/12/09 10:22:08;;;;;;;33.08;26.80;;;;;;;;;;5016242;28;20233;-85
2021/12/09 10:24:36;;;;;;;28.60;26.50;;;;;;;;;;5015845;28;20873;-85
2021/12/09 10:27:04;;;;;;;29.98;27.42;;;;;;;;;;5016335;28;20269;-86
2021/12/09 10:29:35;;;;;;;28.55;26.15;;;;;;;;;;5016274;28;20226;-84
2021/12/09 10:32:04;;;;;;;28.45;26.30;;;;;;;;;;5014978;28;20207;-85
2021/12/09 10:34:36;;;;;;;28.50;26.13;;;;;;;;;;5011231;28;20211;-86
2021/12/09 10:37:20;;;;;;;29.00;26.35;;;;;;;;;;4996761;28;20195;-85
2021/12/09 10:39:49;;;;;;;28.42;26.17;;;;;;;;;;4996863;28;20191;-86
2021/12/09 10:42:18;;;;;;;29.30;26.30;;;;;;;;;;4996973;28;20204;-85
2021/12/09 10:44:53;;;;;;;27.13;25.00;;;;;;;;;;4995131;28;20234;-85
2021/12/09 10:47:34;;;;;;;28.50;26.20;;;;;;;;;;4996639;28;20234;-86
2021/12/09 10:50:15;;;;;;;28.17;25.52;;;;;;;;;;4996348;28;20200;-86
2021/12/09 10:52:48;;;;;;;28.15;25.63;;;;;;;;;;4995661;28;20650;-85
2021/12/09 10:55:20;;;;;;;28.42;25.90;;;;;;;;;;4995910;28;20242;-85
2021/12/09 10:57:53;;;;;;;29.67;26.60;;;;;;;;;;4996437;28;20189;-85
2021/12/09 11:00:23;;;;;;;27.77;25.40;;;;;;;;;;4996483;28;20490;-86
2021/12/09 11:03:07;;;;;;;28.98;26.30;;;;;;;;;;4996048;28;20200;-85
2021/12/09 11:05:35;;;;;;;27.70;25.20;;;;;;;;;;4994938;28;20206;-86
2021/12/09 11:08:18;;;;;;;26.33;23.98;;;;;;;;;;4995959;28;20253;-86
2021/12/09 11:10:48;;;;;;;26.23;24.25;;;;;;;;;;4996032;28;20204;-86
2021/12/09 11:13:17;;;;;;;27.65;24.38;;;;;;;;;;4996137;28;20204;-85
2021/12/09 11:15:46;;;;;;;26.52;24.35;;;;;;;;;;4995688;28;20286;-85
2021/12/09 11:18:34;;;;;;;26.67;24.45;;;;;;;;;;4995577;28;20551;-85
2021/12/09 11:21:04;;;;;;;26.42;24.10;;;;;;;;;;4995679;28;20242;-85
2021/12/09 11:23:35;;;;;;;26.15;24.00;;;;;;;;;;4995595;28;20274;-86
2021/12/09 11:26:26;;;;;;;27.33;25.00;;;;;;;;;;4995622;28;20197;-86
2021/12/09 11:28:55;;;;;;;26.75;24.60;;;;;;;;;;4994953;28;20286;-85
2021/12/09 11:31:25;;;;;;;28.40;25.75;;;;;;;;;;4995693;28;20258;-86
2021/12/09 11:33:57;;;;;;;27.20;24.95;;;;;;;;;;4995759;28;20272;-85
2021/12/09 11:36:39;;;;;;;27.77;25.42;;;;;;;;;;4995585;28;20200;-85
2021/12/09 11:39:13;;;;;;;28.02;25.73;;;;;;;;;;4995476;28;20693;-85
2021/12/09 11:41:42;;;;;;;27.20;24.90;;;;;;;;;;4995421;28;20214;-86
2021/12/09 11:44:10;;;;;;;23.63;22.05;;;;;;;;;;4995183;28;20545;-85
2021/12/09 11:46:38;;;;;;;26.63;24.08;;;;;;;;;;4995331;28;20196;-86
2021/12/09 11:49:06;;;;;;;26.20;23.80;;;;;;;;;;4995227;28;20832;-86
2021/12/09 11:51:33;;;;;;;24.10;22.40;;;;;;;;;;4995522;28;20718;-86
2021/12/09 11:54:01;;;;;;;25.70;23.60;;;;;;;;;;4995454;28;20204;-85
2021/12/09 11:56:39;;;;;;;26.98;23.80;;;;;;;;;;4995434;28;20196;-85
2021/12/09 11:59:40;;;;;;;25.63;23.70;;;;;;;;;;4995060;28;20214;-85
2021/12/09 12:08:00;;;;;;;27.05;24.42;;;;;;;;;;4994286;28;20355;-84
2021/12/09 12:13:49;;;;;;;26.20;24.13;;;;;;;;;;4993953;28;20462;-84
2021/12/09 12:19:45;;;;;;;25.40;23.50;;;;;;;;;;4993993;28;20212;-84
2021/12/09 12:22:41;;;;;;;26.42;23.75;;;;;;;;;;4993902;28;20191;-84
2021/12/09 12:25:24;;;;;;;25.02;22.70;;;;;;;;;;4993417;28;20236;-84
2021/12/09 12:28:08;;;;;;;26.27;23.73;;;;;;;;;;4993682;28;20236;-84
2021/12/09 12:30:58;;;;;;;25.17;23.33;;;;;;;;;;4993598;28;20661;-84
2021/12/09 12:33:58;;;;;;;26.95;24.48;;;;;;;;;;4993522;28;20709;-83
2021/12/09 12:37:03;;;;;;;27.35;24.88;;;;;;;;;;4993854;28;20188;-84
2021/12/09 12:39:48;;;;;;;26.48;24.15;;;;;;;;;;4993237;28;20569;-83
2021/12/09 12:42:24;;;;;;;28.05;25.60;;;;;;;;;;4993367;28;20207;-84
2021/12/09 12:45:06;;;;;;;26.25;24.05;;;;;;;;;;4993578;28;20599;-83
2021/12/09 12:47:40;;;;;;;27.40;25.02;;;;;;;;;;4993059;28;20599;-84
2021/12/09 12:50:13;;;;;;;26.73;24.52;;;;;;;;;;4993608;28;20279;-83
2021/12/09 12:52:40;;;;;;;26.00;24.23;;;;;;;;;;4993377;28;20215;-84
2021/12/09 12:55:12;;;;;;;26.90;24.75;;;;;;;;;;4993697;28;20188;-83
2021/12/09 12:57:42;;;;;;;28.50;25.92;;;;;;;;;;4991653;28;20295;-84
2021/12/09 13:00:12;;;;;;;28.65;26.25;;;;;;;;;;4993068;28;20206;-84
2021/12/09 13:05:46;;;;;;;27.92;26.00;;;;;;;;;;4982504;28;20211;-83
2021/12/09 13:11:14;;;;;;;29.02;26.13;;;;;;;;;;4993105;28;20201;-83
2021/12/09 13:13:59;;;;;;;27.05;24.85;;;;;;;;;;4992815;28;20212;-83
2021/12/09 13:16:38;;;;;;;26.23;24.33;;;;;;;;;;4992984;28;20206;-83
2021/12/09 13:19:10;;;;;;;27.20;24.80;;;;;;;;;;4993135;28;20196;-83
2021/12/09 13:21:44;;;;;;;27.50;25.10;;;;;;;;;;4993089;28;20223;-83
2021/12/09 13:24:32;;;;;;;27.00;25.08;;;;;;;;;;4992672;28;20279;-83
2021/12/09 13:27:24;;;;;;;28.73;26.40;;;;;;;;;;4993018;28;20192;-83
2021/12/09 13:30:08;;;;;;;26.27;24.20;;;;;;;;;;4992702;28;20201;-83
2021/12/09 13:33:06;;;;;;;26.70;24.52;;;;;;;;;;4992770;28;20208;-83
2021/12/09 13:35:45;;;;;;;28.33;26.30;;;;;;;;;;5003443;28;20218;-84
2021/12/09 13:46:55;;;;;;;28.65;26.10;;;;;;;;;;5089628;28;20211;-82
2021/12/09 13:49:35;;;;;;;28.30;25.95;;;;;;;;;;5088151;28;20200;-82
2021/12/09 13:54:04;;;;;;;28.25;26.17;;;;;;;;;;5089511;28;20211;-83
2021/12/09 13:54:54;;;;;;;29.48;26.98;;;;;;;;;;5089164;28;20194;-83
2021/12/09 13:57:31;;;;;;;28.52;26.23;;;;;;;;;;5089459;28;20200;-82
2021/12/09 13:59:58;;;;;;;27.65;25.63;;;;;;;;;;5089152;28;20222;-82
2021/12/09 14:02:26;;;;;;;29.88;27.42;;;;;;;;;;5089524;28;20199;-83
2021/12/09 14:04:55;;;;;;;27.60;25.13;;;;;;;;;;5088961;28;20549;-82
2021/12/09 14:07:28;;;;;;;27.80;25.65;;;;;;;;;;5089306;28;20211;-82
2021/12/09 14:09:59;;;;;;;26.70;24.65;;;;;;;;;;5089090;28;20204;-82
2021/12/09 14:12:31;;;;;;;28.02;25.85;;;;;;;;;;5089384;28;20194;-83
2021/12/09 14:15:06;;;;;;;27.52;24.75;;;;;;;;;;5088703;28;20219;-83
2021/12/09 14:17:35;;;;;;;24.83;23.13;;;;;;;;;;5089204;28;20191;-83
2021/12/09 14:20:06;;;;;;;26.02;24.27;;;;;;;;;;5088596;28;20224;-82
2021/12/09 14:22:34;;;;;;;26.80;24.90;;;;;;;;;;5088843;28;20744;-83
2021/12/09 14:25:05;;;;;;;26.27;24.48;;;;;;;;;;5088714;28;20607;-82
2021/12/09 14:27:33;;;;;;;25.42;23.45;;;;;;;;;;5088774;28;20204;-83
2021/12/09 14:30:02;;;;;;;26.83;24.65;;;;;;;;;;5088605;28;20205;-83
2021/12/09 14:32:30;;;;;;;26.95;24.98;;;;;;;;;;5088756;28;20196;-83
2021/12/09 14:34:58;;;;;;;26.13;24.10;;;;;;;;;;5093267;28;20200;-83
2021/12/09 14:37:26;;;;;;;25.50;23.48;;;;;;;;;;5108896;28;20221;-82
2021/12/09 14:40:02;;;;;;;27.17;24.75;;;;;;;;;;5108740;28;20571;-82
2021/12/09 14:42:30;;;;;;;26.83;24.70;;;;;;;;;;5109423;28;20650;-82
2021/12/09 14:44:59;;;;;;;26.00;24.20;;;;;;;;;;5108212;28;20653;-82
2021/12/09 14:47:28;;;;;;;25.25;23.55;;;;;;;;;;5109099;28;20241;-83
2021/12/09 14:49:58;;;;;;;24.88;22.98;;;;;;;;;;5108740;28;20197;-83
2021/12/09 14:52:30;;;;;;;25.35;23.38;;;;;;;;;;5095642;28;20205;-83
2021/12/09 14:55:14;;;;;;;26.58;24.67;;;;;;;;;;5094952;28;20265;-83
2021/12/09 14:57:54;;;;;;;26.15;24.13;;;;;;;;;;5095165;28;20605;-83
2021/12/09 15:00:37;;;;;;;25.35;23.55;;;;;;;;;;5094809;28;20603;-83
2021/12/09 15:03:07;;;;;;;25.85;23.90;;;;;;;;;;5094788;28;20189;-82
2021/12/09 15:05:47;;;;;;;25.52;23.85;;;;;;;;;;5095084;28;20196;-83
2021/12/09 15:08:20;;;;;;;27.92;25.52;;;;;;;;;;5094930;28;20209;-83